sensor_id;sensor_type;location;lat;lon;timestamp;P1;durP1;ratioP1;P2;durP2;ratioP2
25758;SDS011;13604;52.496;13.456;2023-07-13T00:01:46;7.15;;;2.85;;
25758;SDS011;13604;52.496;13.456;2023-07-13T00:04:16;5.53;;;3.15;;
25758;SDS011;13604;52.496;13.456;2023-07-13T00:06:43;4.22;;;2.80;;
25758;SDS011;13604;52.496;13.456;2023-07-13T00:09:14;5.03;;;2.72;;
25758;SDS011;13604;52.496;13.456;2023-07-13T00:11:42;9.15;;;3.80;;
25758;SDS011;13604;52.496;13.456;2023-07-13T00:14:08;8.70;;;3.40;;
25758;SDS011;13604;52.496;13.456;2023-07-13T00:16:34;6.65;;;3.10;;
25758;SDS011;13604;52.496;13.456;2023-07-13T00:19:01;4.75;;;3.10;;
25758;SDS011;13604;52.496;13.456;2023-07-13T00:21:29;7.13;;;3.22;;
25758;SDS011;13604;52.496;13.456;2023-07-13T00:23:56;6.15;;;3.58;;
25758;SDS011;13604;52.496;13.456;2023-07-13T00:26:21;6.50;;;3.33;;
25758;SDS011;13604;52.496;13.456;2023-07-13T00:28:50;6.00;;;3.35;;
25758;SDS011;13604;52.496;13.456;2023-07-13T00:31:15;9.23;;;3.92;;
25758;SDS011;13604;52.496;13.456;2023-07-13T00:33:40;6.47;;;3.17;;
25758;SDS011;13604;52.496;13.456;2023-07-13T00:36:08;5.90;;;3.28;;
25758;SDS011;13604;52.496;13.456;2023-07-13T00:38:34;5.53;;;3.03;;
25758;SDS011;13604;52.496;13.456;2023-07-13T00:41:00;6.18;;;2.90;;
25758;SDS011;13604;52.496;13.456;2023-07-13T00:43:27;4.15;;;3.13;;
25758;SDS011;13604;52.496;13.456;2023-07-13T00:48:35;6.20;;;3.28;;
25758;SDS011;13604;52.496;13.456;2023-07-13T00:51:02;5.95;;;3.17;;
25758;SDS011;13604;52.496;13.456;2023-07-13T00:53:28;5.70;;;2.58;;
25758;SDS011;13604;52.496;13.456;2023-07-13T00:55:56;4.18;;;3.00;;
25758;SDS011;13604;52.496;13.456;2023-07-13T00:58:25;5.82;;;2.80;;
25758;SDS011;13604;52.496;13.456;2023-07-13T01:00:51;4.32;;;2.60;;
25758;SDS011;13604;52.496;13.456;2023-07-13T01:03:19;6.55;;;2.67;;
25758;SDS011;13604;52.496;13.456;2023-07-13T01:05:44;5.53;;;2.63;;
25758;SDS011;13604;52.496;13.456;2023-07-13T01:08:13;5.00;;;2.85;;
25758;SDS011;13604;52.496;13.456;2023-07-13T01:10:38;3.95;;;2.67;;
25758;SDS011;13604;52.496;13.456;2023-07-13T01:13:05;2.60;;;2.25;;
25758;SDS011;13604;52.496;13.456;2023-07-13T01:15:42;5.13;;;2.30;;
25758;SDS011;13604;52.496;13.456;2023-07-13T01:18:11;5.82;;;2.65;;
25758;SDS011;13604;52.496;13.456;2023-07-13T01:21:20;8.18;;;3.00;;
25758;SDS011;13604;52.496;13.456;2023-07-13T01:23:38;2.97;;;2.50;;
25758;SDS011;13604;52.496;13.456;2023-07-13T01:26:03;7.10;;;3.30;;
25758;SDS011;13604;52.496;13.456;2023-07-13T01:28:29;6.78;;;2.35;;
25758;SDS011;13604;52.496;13.456;2023-07-13T01:30:55;4.93;;;2.78;;
25758;SDS011;13604;52.496;13.456;2023-07-13T01:33:22;5.53;;;3.13;;
25758;SDS011;13604;52.496;13.456;2023-07-13T01:35:48;3.75;;;2.53;;
25758;SDS011;13604;52.496;13.456;2023-07-13T01:38:15;5.22;;;2.90;;
25758;SDS011;13604;52.496;13.456;2023-07-13T01:40:45;5.47;;;2.50;;
25758;SDS011;13604;52.496;13.456;2023-07-13T01:43:11;5.60;;;2.63;;
25758;SDS011;13604;52.496;13.456;2023-07-13T01:45:36;4.80;;;2.60;;
25758;SDS011;13604;52.496;13.456;2023-07-13T01:48:02;5.50;;;3.00;;
25758;SDS011;13604;52.496;13.456;2023-07-13T01:50:28;5.00;;;2.88;;
25758;SDS011;13604;52.496;13.456;2023-07-13T01:52:55;7.07;;;3.03;;
25758;SDS011;13604;52.496;13.456;2023-07-13T01:55:21;3.88;;;2.63;;
25758;SDS011;13604;52.496;13.456;2023-07-13T01:57:47;5.25;;;2.70;;
25758;SDS011;13604;52.496;13.456;2023-07-13T02:00:12;6.63;;;2.92;;
25758;SDS011;13604;52.496;13.456;2023-07-13T02:02:39;4.68;;;2.85;;
25758;SDS011;13604;52.496;13.456;2023-07-13T02:05:05;6.80;;;3.13;;
25758;SDS011;13604;52.496;13.456;2023-07-13T02:07:33;6.32;;;3.22;;
25758;SDS011;13604;52.496;13.456;2023-07-13T02:09:58;5.70;;;3.40;;
25758;SDS011;13604;52.496;13.456;2023-07-13T02:12:23;4.93;;;3.03;;
25758;SDS011;13604;52.496;13.456;2023-07-13T02:14:50;5.20;;;2.80;;
25758;SDS011;13604;52.496;13.456;2023-07-13T02:17:15;6.30;;;3.00;;
25758;SDS011;13604;52.496;13.456;2023-07-13T02:19:40;6.93;;;2.88;;
25758;SDS011;13604;52.496;13.456;2023-07-13T02:22:06;6.32;;;2.80;;
25758;SDS011;13604;52.496;13.456;2023-07-13T02:24:31;5.03;;;3.08;;
25758;SDS011;13604;52.496;13.456;2023-07-13T02:26:56;4.32;;;3.20;;
25758;SDS011;13604;52.496;13.456;2023-07-13T02:29:23;5.15;;;3.08;;
25758;SDS011;13604;52.496;13.456;2023-07-13T02:31:48;5.60;;;3.00;;
25758;SDS011;13604;52.496;13.456;2023-07-13T02:34:14;4.10;;;3.08;;
25758;SDS011;13604;52.496;13.456;2023-07-13T02:36:39;6.07;;;3.50;;
25758;SDS011;13604;52.496;13.456;2023-07-13T02:39:05;6.13;;;3.60;;
25758;SDS011;13604;52.496;13.456;2023-07-13T02:41:30;6.15;;;3.28;;
25758;SDS011;13604;52.496;13.456;2023-07-13T02:43:57;8.15;;;3.08;;
25758;SDS011;13604;52.496;13.456;2023-07-13T02:46:28;9.23;;;3.55;;
25758;SDS011;13604;52.496;13.456;2023-07-13T02:48:54;6.25;;;3.70;;
25758;SDS011;13604;52.496;13.456;2023-07-13T02:51:19;7.10;;;3.53;;
25758;SDS011;13604;52.496;13.456;2023-07-13T02:53:46;5.07;;;3.35;;
25758;SDS011;13604;52.496;13.456;2023-07-13T02:56:13;4.47;;;3.40;;
25758;SDS011;13604;52.496;13.456;2023-07-13T02:58:39;5.80;;;3.47;;
25758;SDS011;13604;52.496;13.456;2023-07-13T03:01:08;5.22;;;3.30;;
25758;SDS011;13604;52.496;13.456;2023-07-13T03:03:35;4.28;;;3.10;;
25758;SDS011;13604;52.496;13.456;2023-07-13T03:06:01;5.25;;;3.28;;
25758;SDS011;13604;52.496;13.456;2023-07-13T03:08:28;4.43;;;3.33;;
25758;SDS011;13604;52.496;13.456;2023-07-13T03:11:07;3.95;;;3.13;;
25758;SDS011;13604;52.496;13.456;2023-07-13T03:13:36;5.10;;;3.22;;
25758;SDS011;13604;52.496;13.456;2023-07-13T03:16:02;8.13;;;3.30;;
25758;SDS011;13604;52.496;13.456;2023-07-13T03:18:29;4.75;;;3.35;;
25758;SDS011;13604;52.496;13.456;2023-07-13T03:20:54;9.10;;;4.07;;
25758;SDS011;13604;52.496;13.456;2023-07-13T03:23:21;6.78;;;3.08;;
25758;SDS011;13604;52.496;13.456;2023-07-13T03:25:47;7.05;;;3.70;;
25758;SDS011;13604;52.496;13.456;2023-07-13T03:28:12;7.43;;;3.70;;
25758;SDS011;13604;52.496;13.456;2023-07-13T03:30:41;6.40;;;3.45;;
25758;SDS011;13604;52.496;13.456;2023-07-13T03:33:06;5.30;;;3.17;;
25758;SDS011;13604;52.496;13.456;2023-07-13T03:35:35;4.50;;;3.35;;
25758;SDS011;13604;52.496;13.456;2023-07-13T03:38:00;5.00;;;3.08;;
25758;SDS011;13604;52.496;13.456;2023-07-13T03:40:27;6.95;;;3.30;;
25758;SDS011;13604;52.496;13.456;2023-07-13T03:42:53;6.10;;;3.35;;
25758;SDS011;13604;52.496;13.456;2023-07-13T03:45:18;7.30;;;3.55;;
25758;SDS011;13604;52.496;13.456;2023-07-13T03:47:44;4.53;;;3.20;;
25758;SDS011;13604;52.496;13.456;2023-07-13T03:50:10;5.97;;;3.00;;
25758;SDS011;13604;52.496;13.456;2023-07-13T03:52:35;6.40;;;3.55;;
25758;SDS011;13604;52.496;13.456;2023-07-13T03:55:01;5.68;;;3.33;;
25758;SDS011;13604;52.496;13.456;2023-07-13T03:57:26;5.57;;;3.35;;
25758;SDS011;13604;52.496;13.456;2023-07-13T03:59:51;8.90;;;3.40;;
25758;SDS011;13604;52.496;13.456;2023-07-13T04:02:16;5.82;;;3.40;;
25758;SDS011;13604;52.496;13.456;2023-07-13T04:04:42;5.47;;;3.10;;
25758;SDS011;13604;52.496;13.456;2023-07-13T04:07:08;6.80;;;3.20;;
25758;SDS011;13604;52.496;13.456;2023-07-13T04:09:33;8.43;;;3.60;;
25758;SDS011;13604;52.496;13.456;2023-07-13T04:12:00;6.47;;;3.03;;
25758;SDS011;13604;52.496;13.456;2023-07-13T04:14:25;5.50;;;3.45;;
25758;SDS011;13604;52.496;13.456;2023-07-13T04:16:51;4.97;;;3.45;;
25758;SDS011;13604;52.496;13.456;2023-07-13T04:19:16;5.47;;;3.00;;
25758;SDS011;13604;52.496;13.456;2023-07-13T04:21:44;5.55;;;3.45;;
25758;SDS011;13604;52.496;13.456;2023-07-13T04:24:10;5.78;;;2.95;;
25758;SDS011;13604;52.496;13.456;2023-07-13T04:26:36;6.18;;;2.90;;
25758;SDS011;13604;52.496;13.456;2023-07-13T04:29:03;7.28;;;3.38;;
25758;SDS011;13604;52.496;13.456;2023-07-13T04:31:29;5.32;;;2.92;;
25758;SDS011;13604;52.496;13.456;2023-07-13T04:33:56;3.97;;;2.50;;
25758;SDS011;13604;52.496;13.456;2023-07-13T04:36:22;7.57;;;2.60;;
25758;SDS011;13604;52.496;13.456;2023-07-13T04:38:47;4.88;;;2.60;;
25758;SDS011;13604;52.496;13.456;2023-07-13T04:41:14;3.83;;;2.70;;
25758;SDS011;13604;52.496;13.456;2023-07-13T04:43:40;3.72;;;2.60;;
25758;SDS011;13604;52.496;13.456;2023-07-13T04:46:06;4.45;;;2.67;;
25758;SDS011;13604;52.496;13.456;2023-07-13T04:48:33;4.55;;;2.50;;
25758;SDS011;13604;52.496;13.456;2023-07-13T04:50:59;9.48;;;2.70;;
25758;SDS011;13604;52.496;13.456;2023-07-13T04:53:24;7.20;;;2.53;;
25758;SDS011;13604;52.496;13.456;2023-07-13T04:55:51;6.97;;;3.15;;
25758;SDS011;13604;52.496;13.456;2023-07-13T04:58:16;4.22;;;2.65;;
25758;SDS011;13604;52.496;13.456;2023-07-13T05:00:42;3.30;;;2.42;;
25758;SDS011;13604;52.496;13.456;2023-07-13T05:03:07;6.00;;;2.90;;
25758;SDS011;13604;52.496;13.456;2023-07-13T05:05:32;4.88;;;2.42;;
25758;SDS011;13604;52.496;13.456;2023-07-13T05:07:59;9.90;;;3.20;;
25758;SDS011;13604;52.496;13.456;2023-07-13T05:10:24;3.33;;;2.50;;
25758;SDS011;13604;52.496;13.456;2023-07-13T05:12:49;5.25;;;2.38;;
25758;SDS011;13604;52.496;13.456;2023-07-13T05:15:15;4.72;;;2.72;;
25758;SDS011;13604;52.496;13.456;2023-07-13T05:17:41;3.58;;;2.28;;
25758;SDS011;13604;52.496;13.456;2023-07-13T05:20:07;3.78;;;2.20;;
25758;SDS011;13604;52.496;13.456;2023-07-13T05:22:33;4.95;;;2.40;;
25758;SDS011;13604;52.496;13.456;2023-07-13T05:25:00;5.53;;;2.78;;
25758;SDS011;13604;52.496;13.456;2023-07-13T05:27:26;3.72;;;2.30;;
25758;SDS011;13604;52.496;13.456;2023-07-13T05:29:51;5.35;;;2.25;;
25758;SDS011;13604;52.496;13.456;2023-07-13T05:32:17;3.17;;;2.20;;
25758;SDS011;13604;52.496;13.456;2023-07-13T05:34:43;4.38;;;2.35;;
25758;SDS011;13604;52.496;13.456;2023-07-13T05:37:08;6.70;;;2.45;;
25758;SDS011;13604;52.496;13.456;2023-07-13T05:39:33;7.93;;;2.38;;
25758;SDS011;13604;52.496;13.456;2023-07-13T05:41:59;4.70;;;2.15;;
25758;SDS011;13604;52.496;13.456;2023-07-13T05:44:24;5.30;;;2.70;;
25758;SDS011;13604;52.496;13.456;2023-07-13T05:46:49;4.63;;;2.33;;
25758;SDS011;13604;52.496;13.456;2023-07-13T05:49:15;4.07;;;2.10;;
25758;SDS011;13604;52.496;13.456;2023-07-13T05:51:41;5.78;;;2.03;;
25758;SDS011;13604;52.496;13.456;2023-07-13T05:54:09;3.95;;;2.40;;
25758;SDS011;13604;52.496;13.456;2023-07-13T05:56:34;7.55;;;2.30;;
25758;SDS011;13604;52.496;13.456;2023-07-13T05:59:00;7.40;;;2.67;;
25758;SDS011;13604;52.496;13.456;2023-07-13T06:01:25;7.53;;;2.38;;
25758;SDS011;13604;52.496;13.456;2023-07-13T06:03:50;7.70;;;2.50;;
25758;SDS011;13604;52.496;13.456;2023-07-13T06:06:16;4.88;;;2.50;;
25758;SDS011;13604;52.496;13.456;2023-07-13T06:08:41;5.30;;;2.38;;
25758;SDS011;13604;52.496;13.456;2023-07-13T06:11:12;8.27;;;2.25;;
25758;SDS011;13604;52.496;13.456;2023-07-13T06:13:40;8.73;;;2.73;;
25758;SDS011;13604;52.496;13.456;2023-07-13T06:16:05;9.63;;;3.08;;
25758;SDS011;13604;52.496;13.456;2023-07-13T06:18:32;6.38;;;2.58;;
25758;SDS011;13604;52.496;13.456;2023-07-13T06:20:59;4.63;;;2.50;;
25758;SDS011;13604;52.496;13.456;2023-07-13T06:23:24;4.45;;;2.30;;
25758;SDS011;13604;52.496;13.456;2023-07-13T06:25:50;7.05;;;2.90;;
25758;SDS011;13604;52.496;13.456;2023-07-13T06:28:16;8.32;;;2.78;;
25758;SDS011;13604;52.496;13.456;2023-07-13T06:30:41;8.73;;;2.95;;
25758;SDS011;13604;52.496;13.456;2023-07-13T06:33:06;5.35;;;2.55;;
25758;SDS011;13604;52.496;13.456;2023-07-13T06:35:32;8.80;;;3.00;;
25758;SDS011;13604;52.496;13.456;2023-07-13T06:37:57;9.68;;;3.00;;
25758;SDS011;13604;52.496;13.456;2023-07-13T06:40:22;9.15;;;3.17;;
25758;SDS011;13604;52.496;13.456;2023-07-13T06:42:47;4.15;;;2.38;;
25758;SDS011;13604;52.496;13.456;2023-07-13T06:45:13;5.45;;;2.70;;
25758;SDS011;13604;52.496;13.456;2023-07-13T06:47:38;6.85;;;2.85;;
25758;SDS011;13604;52.496;13.456;2023-07-13T06:50:03;7.13;;;2.30;;
25758;SDS011;13604;52.496;13.456;2023-07-13T06:52:29;6.50;;;2.38;;
25758;SDS011;13604;52.496;13.456;2023-07-13T06:54:54;3.13;;;2.08;;
25758;SDS011;13604;52.496;13.456;2023-07-13T06:57:20;4.60;;;2.17;;
25758;SDS011;13604;52.496;13.456;2023-07-13T06:59:45;3.75;;;2.47;;
25758;SDS011;13604;52.496;13.456;2023-07-13T07:02:10;3.88;;;2.17;;
25758;SDS011;13604;52.496;13.456;2023-07-13T07:04:36;5.45;;;2.30;;
25758;SDS011;13604;52.496;13.456;2023-07-13T07:07:02;5.53;;;2.00;;
25758;SDS011;13604;52.496;13.456;2023-07-13T07:09:27;5.55;;;2.20;;
25758;SDS011;13604;52.496;13.456;2023-07-13T07:11:54;6.78;;;2.08;;
25758;SDS011;13604;52.496;13.456;2023-07-13T07:14:19;6.40;;;2.45;;
25758;SDS011;13604;52.496;13.456;2023-07-13T07:16:45;8.38;;;2.15;;
25758;SDS011;13604;52.496;13.456;2023-07-13T07:19:10;4.88;;;2.20;;
25758;SDS011;13604;52.496;13.456;2023-07-13T07:21:36;5.68;;;2.03;;
25758;SDS011;13604;52.496;13.456;2023-07-13T07:24:01;4.95;;;2.30;;
25758;SDS011;13604;52.496;13.456;2023-07-13T07:26:28;6.45;;;1.90;;
25758;SDS011;13604;52.496;13.456;2023-07-13T07:28:53;4.20;;;1.63;;
25758;SDS011;13604;52.496;13.456;2023-07-13T07:31:18;4.45;;;1.65;;
25758;SDS011;13604;52.496;13.456;2023-07-13T07:33:44;6.03;;;1.70;;
25758;SDS011;13604;52.496;13.456;2023-07-13T07:36:09;3.47;;;1.50;;
25758;SDS011;13604;52.496;13.456;2023-07-13T07:38:35;8.07;;;1.95;;
25758;SDS011;13604;52.496;13.456;2023-07-13T07:41:03;6.35;;;1.70;;
25758;SDS011;13604;52.496;13.456;2023-07-13T07:43:30;4.95;;;1.90;;
25758;SDS011;13604;52.496;13.456;2023-07-13T07:45:56;2.47;;;1.55;;
25758;SDS011;13604;52.496;13.456;2023-07-13T07:48:21;2.50;;;1.58;;
25758;SDS011;13604;52.496;13.456;2023-07-13T07:50:46;6.20;;;1.50;;
25758;SDS011;13604;52.496;13.456;2023-07-13T07:53:12;8.68;;;1.98;;
25758;SDS011;13604;52.496;13.456;2023-07-13T07:55:37;4.35;;;1.48;;
25758;SDS011;13604;52.496;13.456;2023-07-13T07:58:04;3.33;;;1.52;;
25758;SDS011;13604;52.496;13.456;2023-07-13T08:00:30;7.80;;;1.85;;
25758;SDS011;13604;52.496;13.456;2023-07-13T08:02:56;8.25;;;1.52;;
25758;SDS011;13604;52.496;13.456;2023-07-13T08:05:22;4.68;;;1.70;;
25758;SDS011;13604;52.496;13.456;2023-07-13T08:07:47;2.60;;;1.23;;
25758;SDS011;13604;52.496;13.456;2023-07-13T08:10:13;2.70;;;1.52;;
25758;SDS011;13604;52.496;13.456;2023-07-13T08:12:38;4.95;;;1.48;;
25758;SDS011;13604;52.496;13.456;2023-07-13T08:15:05;2.75;;;1.40;;
25758;SDS011;13604;52.496;13.456;2023-07-13T08:17:34;4.30;;;1.40;;
25758;SDS011;13604;52.496;13.456;2023-07-13T08:19:59;3.60;;;1.55;;
25758;SDS011;13604;52.496;13.456;2023-07-13T08:22:25;4.00;;;1.60;;
25758;SDS011;13604;52.496;13.456;2023-07-13T08:24:51;5.50;;;1.90;;
25758;SDS011;13604;52.496;13.456;2023-07-13T08:27:21;6.13;;;1.35;;
25758;SDS011;13604;52.496;13.456;2023-07-13T08:29:47;5.78;;;1.40;;
25758;SDS011;13604;52.496;13.456;2023-07-13T08:32:12;4.82;;;1.30;;
25758;SDS011;13604;52.496;13.456;2023-07-13T08:34:38;4.03;;;1.52;;
25758;SDS011;13604;52.496;13.456;2023-07-13T08:37:04;7.43;;;1.70;;
25758;SDS011;13604;52.496;13.456;2023-07-13T08:39:30;5.72;;;1.35;;
25758;SDS011;13604;52.496;13.456;2023-07-13T08:41:58;5.65;;;1.65;;
25758;SDS011;13604;52.496;13.456;2023-07-13T08:47:37;4.75;;;1.48;;
25758;SDS011;13604;52.496;13.456;2023-07-13T08:50:11;2.15;;;1.20;;
25758;SDS011;13604;52.496;13.456;2023-07-13T08:52:38;3.47;;;1.50;;
25758;SDS011;13604;52.496;13.456;2023-07-13T08:55:09;5.18;;;1.58;;
25758;SDS011;13604;52.496;13.456;2023-07-13T08:57:39;5.75;;;1.42;;
25758;SDS011;13604;52.496;13.456;2023-07-13T09:02:39;4.20;;;1.30;;
25758;SDS011;13604;52.496;13.456;2023-07-13T09:05:12;3.45;;;1.55;;
25758;SDS011;13604;52.496;13.456;2023-07-13T09:10:30;3.92;;;1.60;;
25758;SDS011;13604;52.496;13.456;2023-07-13T09:15:45;1.58;;;1.25;;
25758;SDS011;13604;52.496;13.456;2023-07-13T09:18:16;2.97;;;1.17;;
25758;SDS011;13604;52.496;13.456;2023-07-13T09:23:37;4.85;;;1.45;;
25758;SDS011;13604;52.496;13.456;2023-07-13T09:26:09;5.07;;;1.55;;
25758;SDS011;13604;52.496;13.456;2023-07-13T09:28:39;1.67;;;1.20;;
25758;SDS011;13604;52.496;13.456;2023-07-13T09:31:09;2.95;;;1.20;;
25758;SDS011;13604;52.496;13.456;2023-07-13T09:33:38;3.40;;;1.20;;
25758;SDS011;13604;52.496;13.456;2023-07-13T09:36:18;1.52;;;1.20;;
25758;SDS011;13604;52.496;13.456;2023-07-13T09:38:44;6.10;;;1.40;;
25758;SDS011;13604;52.496;13.456;2023-07-13T09:44:13;2.88;;;1.50;;
25758;SDS011;13604;52.496;13.456;2023-07-13T09:46:47;3.85;;;1.40;;
25758;SDS011;13604;52.496;13.456;2023-07-13T09:49:17;1.30;;;1.08;;
25758;SDS011;13604;52.496;13.456;2023-07-13T09:51:43;2.78;;;1.60;;
25758;SDS011;13604;52.496;13.456;2023-07-13T09:54:19;5.20;;;1.75;;
25758;SDS011;13604;52.496;13.456;2023-07-13T09:56:46;5.10;;;1.70;;
25758;SDS011;13604;52.496;13.456;2023-07-13T09:59:18;3.53;;;1.88;;
25758;SDS011;13604;52.496;13.456;2023-07-13T10:02:35;5.65;;;2.22;;
25758;SDS011;13604;52.496;13.456;2023-07-13T10:05:04;2.85;;;1.92;;
25758;SDS011;13604;52.496;13.456;2023-07-13T10:07:43;3.25;;;2.08;;
25758;SDS011;13604;52.496;13.456;2023-07-13T10:10:17;7.68;;;2.55;;
25758;SDS011;13604;52.496;13.456;2023-07-13T10:12:45;4.43;;;2.25;;
25758;SDS011;13604;52.496;13.456;2023-07-13T10:15:15;4.07;;;2.53;;
25758;SDS011;13604;52.496;13.456;2023-07-13T10:17:42;5.38;;;2.38;;
25758;SDS011;13604;52.496;13.456;2023-07-13T10:20:09;5.53;;;2.10;;
25758;SDS011;13604;52.496;13.456;2023-07-13T10:25:30;6.10;;;2.78;;
25758;SDS011;13604;52.496;13.456;2023-07-13T10:27:58;8.88;;;2.20;;
25758;SDS011;13604;52.496;13.456;2023-07-13T10:30:32;4.18;;;2.13;;
25758;SDS011;13604;52.496;13.456;2023-07-13T10:33:04;6.40;;;2.28;;
25758;SDS011;13604;52.496;13.456;2023-07-13T10:35:37;5.32;;;2.20;;
25758;SDS011;13604;52.496;13.456;2023-07-13T10:38:07;6.15;;;2.45;;
25758;SDS011;13604;52.496;13.456;2023-07-13T10:40:37;3.90;;;2.47;;
25758;SDS011;13604;52.496;13.456;2023-07-13T10:43:10;6.53;;;2.40;;
25758;SDS011;13604;52.496;13.456;2023-07-13T10:45:43;5.32;;;2.78;;
25758;SDS011;13604;52.496;13.456;2023-07-13T10:48:12;4.45;;;2.13;;
25758;SDS011;13604;52.496;13.456;2023-07-13T10:50:40;5.35;;;2.05;;
25758;SDS011;13604;52.496;13.456;2023-07-13T10:53:19;8.82;;;2.17;;
25758;SDS011;13604;52.496;13.456;2023-07-13T11:03:36;3.60;;;2.10;;
25758;SDS011;13604;52.496;13.456;2023-07-13T11:06:13;5.70;;;1.80;;
25758;SDS011;13604;52.496;13.456;2023-07-13T11:13:56;6.05;;;2.10;;
25758;SDS011;13604;52.496;13.456;2023-07-13T11:21:28;3.80;;;1.77;;
25758;SDS011;13604;52.496;13.456;2023-07-13T11:24:03;5.45;;;2.00;;
25758;SDS011;13604;52.496;13.456;2023-07-13T11:26:38;3.67;;;1.75;;
25758;SDS011;13604;52.496;13.456;2023-07-13T11:31:39;4.28;;;1.85;;
25758;SDS011;13604;52.496;13.456;2023-07-13T11:34:06;6.63;;;2.35;;
25758;SDS011;13604;52.496;13.456;2023-07-13T11:36:44;4.00;;;2.00;;
25758;SDS011;13604;52.496;13.456;2023-07-13T11:39:16;4.75;;;1.83;;
25758;SDS011;13604;52.496;13.456;2023-07-13T11:41:56;4.13;;;1.90;;
25758;SDS011;13604;52.496;13.456;2023-07-13T11:44:25;3.63;;;1.90;;
25758;SDS011;13604;52.496;13.456;2023-07-13T11:46:54;2.90;;;1.75;;
25758;SDS011;13604;52.496;13.456;2023-07-13T11:49:23;7.55;;;2.20;;
25758;SDS011;13604;52.496;13.456;2023-07-13T11:51:51;6.75;;;2.25;;
25758;SDS011;13604;52.496;13.456;2023-07-13T11:54:31;3.50;;;1.90;;
25758;SDS011;13604;52.496;13.456;2023-07-13T11:57:24;4.95;;;2.30;;
25758;SDS011;13604;52.496;13.456;2023-07-13T11:59:52;5.53;;;2.10;;
25758;SDS011;13604;52.496;13.456;2023-07-13T12:02:26;2.60;;;1.95;;
25758;SDS011;13604;52.496;13.456;2023-07-13T12:04:58;5.63;;;1.90;;
25758;SDS011;13604;52.496;13.456;2023-07-13T12:07:27;3.88;;;1.80;;
25758;SDS011;13604;52.496;13.456;2023-07-13T12:09:59;2.42;;;1.90;;
25758;SDS011;13604;52.496;13.456;2023-07-13T12:12:28;6.75;;;1.48;;
25758;SDS011;13604;52.496;13.456;2023-07-13T12:14:54;4.45;;;1.75;;
25758;SDS011;13604;52.496;13.456;2023-07-13T12:17:24;2.40;;;1.55;;
25758;SDS011;13604;52.496;13.456;2023-07-13T12:19:51;4.32;;;1.80;;
25758;SDS011;13604;52.496;13.456;2023-07-13T12:22:18;3.85;;;1.77;;
25758;SDS011;13604;52.496;13.456;2023-07-13T12:24:45;3.47;;;1.73;;
25758;SDS011;13604;52.496;13.456;2023-07-13T12:27:24;6.75;;;1.85;;
25758;SDS011;13604;52.496;13.456;2023-07-13T12:29:59;9.48;;;1.85;;
25758;SDS011;13604;52.496;13.456;2023-07-13T12:32:30;2.65;;;1.80;;
25758;SDS011;13604;52.496;13.456;2023-07-13T12:35:15;7.32;;;2.25;;
25758;SDS011;13604;52.496;13.456;2023-07-13T12:37:42;4.05;;;1.48;;
25758;SDS011;13604;52.496;13.456;2023-07-13T12:40:13;3.03;;;1.65;;
25758;SDS011;13604;52.496;13.456;2023-07-13T12:42:40;4.55;;;1.90;;
25758;SDS011;13604;52.496;13.456;2023-07-13T12:45:17;4.63;;;1.80;;
25758;SDS011;13604;52.496;13.456;2023-07-13T12:47:57;4.03;;;2.03;;
25758;SDS011;13604;52.496;13.456;2023-07-13T12:50:33;4.43;;;2.00;;
25758;SDS011;13604;52.496;13.456;2023-07-13T12:53:05;3.90;;;1.77;;
25758;SDS011;13604;52.496;13.456;2023-07-13T12:55:48;7.78;;;1.80;;
25758;SDS011;13604;52.496;13.456;2023-07-13T12:58:26;5.03;;;1.73;;
25758;SDS011;13604;52.496;13.456;2023-07-13T13:00:54;4.95;;;1.80;;
25758;SDS011;13604;52.496;13.456;2023-07-13T13:03:23;5.00;;;1.80;;
25758;SDS011;13604;52.496;13.456;2023-07-13T13:05:57;3.70;;;1.70;;
25758;SDS011;13604;52.496;13.456;2023-07-13T13:08:24;7.72;;;1.60;;
25758;SDS011;13604;52.496;13.456;2023-07-13T13:10:50;3.28;;;1.48;;
25758;SDS011;13604;52.496;13.456;2023-07-13T13:13:15;5.97;;;1.70;;
25758;SDS011;13604;52.496;13.456;2023-07-13T13:15:40;3.75;;;1.65;;
25758;SDS011;13604;52.496;13.456;2023-07-13T13:18:16;3.83;;;1.55;;
25758;SDS011;13604;52.496;13.456;2023-07-13T13:20:44;6.57;;;1.80;;
25758;SDS011;13604;52.496;13.456;2023-07-13T13:23:12;3.03;;;1.52;;
25758;SDS011;13604;52.496;13.456;2023-07-13T13:25:41;9.65;;;1.70;;
25758;SDS011;13604;52.496;13.456;2023-07-13T13:28:12;5.70;;;1.60;;
25758;SDS011;13604;52.496;13.456;2023-07-13T13:30:41;6.68;;;1.90;;
25758;SDS011;13604;52.496;13.456;2023-07-13T13:33:10;2.50;;;1.45;;
25758;SDS011;13604;52.496;13.456;2023-07-13T13:35:37;3.13;;;1.75;;
25758;SDS011;13604;52.496;13.456;2023-07-13T13:38:08;5.35;;;1.80;;
25758;SDS011;13604;52.496;13.456;2023-07-13T13:40:35;4.20;;;1.83;;
25758;SDS011;13604;52.496;13.456;2023-07-13T13:43:01;5.37;;;1.50;;
25758;SDS011;13604;52.496;13.456;2023-07-13T13:45:27;6.45;;;1.50;;
25758;SDS011;13604;52.496;13.456;2023-07-13T13:47:53;7.95;;;1.65;;
25758;SDS011;13604;52.496;13.456;2023-07-13T13:50:20;7.97;;;1.83;;
25758;SDS011;13604;52.496;13.456;2023-07-13T13:52:49;4.10;;;1.30;;
25758;SDS011;13604;52.496;13.456;2023-07-13T13:55:15;2.65;;;1.52;;
25758;SDS011;13604;52.496;13.456;2023-07-13T13:57:42;3.80;;;1.35;;
25758;SDS011;13604;52.496;13.456;2023-07-13T14:00:09;3.28;;;1.50;;
25758;SDS011;13604;52.496;13.456;2023-07-13T14:02:41;1.80;;;1.30;;
25758;SDS011;13604;52.496;13.456;2023-07-13T14:05:21;1.90;;;1.40;;
25758;SDS011;13604;52.496;13.456;2023-07-13T14:07:49;7.88;;;1.75;;
25758;SDS011;13604;52.496;13.456;2023-07-13T14:10:17;4.97;;;1.40;;
25758;SDS011;13604;52.496;13.456;2023-07-13T14:12:44;5.07;;;1.77;;
25758;SDS011;13604;52.496;13.456;2023-07-13T14:15:33;3.85;;;1.70;;
25758;SDS011;13604;52.496;13.456;2023-07-13T14:17:59;4.65;;;1.40;;
25758;SDS011;13604;52.496;13.456;2023-07-13T14:20:25;4.15;;;1.83;;
25758;SDS011;13604;52.496;13.456;2023-07-13T14:22:51;5.63;;;1.65;;
25758;SDS011;13604;52.496;13.456;2023-07-13T14:25:19;4.55;;;1.58;;
25758;SDS011;13604;52.496;13.456;2023-07-13T14:27:46;5.88;;;1.48;;
25758;SDS011;13604;52.496;13.456;2023-07-13T14:30:18;3.65;;;1.48;;
25758;SDS011;13604;52.496;13.456;2023-07-13T14:32:44;4.68;;;1.40;;
25758;SDS011;13604;52.496;13.456;2023-07-13T14:35:11;5.22;;;1.50;;
25758;SDS011;13604;52.496;13.456;2023-07-13T14:37:38;4.20;;;1.50;;
25758;SDS011;13604;52.496;13.456;2023-07-13T14:40:08;3.72;;;1.35;;
25758;SDS011;13604;52.496;13.456;2023-07-13T14:42:36;3.00;;;1.35;;
25758;SDS011;13604;52.496;13.456;2023-07-13T14:45:02;4.63;;;1.53;;
25758;SDS011;13604;52.496;13.456;2023-07-13T14:47:27;3.13;;;1.80;;
25758;SDS011;13604;52.496;13.456;2023-07-13T14:49:52;9.10;;;1.73;;
25758;SDS011;13604;52.496;13.456;2023-07-13T14:52:18;5.75;;;1.52;;
25758;SDS011;13604;52.496;13.456;2023-07-13T14:54:45;2.38;;;1.20;;
25758;SDS011;13604;52.496;13.456;2023-07-13T14:57:14;5.88;;;1.30;;
25758;SDS011;13604;52.496;13.456;2023-07-13T14:59:40;1.70;;;1.15;;
25758;SDS011;13604;52.496;13.456;2023-07-13T15:02:19;4.97;;;1.63;;
25758;SDS011;13604;52.496;13.456;2023-07-13T15:04:50;7.10;;;1.60;;
25758;SDS011;13604;52.496;13.456;2023-07-13T15:07:15;2.93;;;1.33;;
25758;SDS011;13604;52.496;13.456;2023-07-13T15:09:42;3.58;;;1.48;;
25758;SDS011;13604;52.496;13.456;2023-07-13T15:12:08;3.05;;;1.50;;
25758;SDS011;13604;52.496;13.456;2023-07-13T15:14:33;4.88;;;1.70;;
25758;SDS011;13604;52.496;13.456;2023-07-13T15:16:59;6.10;;;1.23;;
25758;SDS011;13604;52.496;13.456;2023-07-13T15:19:24;2.88;;;1.10;;
25758;SDS011;13604;52.496;13.456;2023-07-13T15:21:50;4.35;;;1.42;;